createdAt,value
2018-11-23T00:00:50.600Z,95181.03
2018-11-23T00:03:19.028Z,95190.71
2018-11-23T00:05:53.000Z,95181.41
2018-11-23T00:08:21.351Z,95176.30
2018-11-23T00:10:49.678Z,95180.75
2018-11-23T00:13:18.036Z,95183.58
2018-11-23T00:15:46.641Z,95185.28
2018-11-23T00:18:14.996Z,95189.74
2018-11-23T00:20:43.436Z,95186.39
2018-11-23T00:23:11.968Z,95188.83
2018-11-23T00:25:40.394Z,95182.73
2018-11-23T00:28:08.832Z,95187.02
2018-11-23T00:30:37.365Z,95191.09
2018-11-23T00:33:05.856Z,95187.08
2018-11-23T00:35:34.271Z,95194.61
2018-11-23T00:38:02.731Z,95202.91
2018-11-23T00:40:32.091Z,95200.13
2018-11-23T00:43:00.908Z,95197.30
2018-11-23T00:45:29.415Z,95203.81
2018-11-23T00:47:58.709Z,95209.78
2018-11-23T00:50:27.375Z,95205.11
2018-11-23T00:52:56.889Z,95208.39
2018-11-23T00:55:26.139Z,95206.61
2018-11-23T00:57:54.662Z,95206.05
2018-11-23T01:00:26.085Z,95208.94
2018-11-23T01:02:55.051Z,95202.64
2018-11-23T01:05:23.773Z,95205.30
2018-11-23T01:07:52.268Z,95203.36
2018-11-23T01:10:21.827Z,95208.22
2018-11-23T01:12:51.235Z,95204.77
2018-11-23T01:15:19.671Z,95206.80
2018-11-23T01:17:48.098Z,95206.67
2018-11-23T01:20:17.938Z,95198.81
2018-11-23T01:22:46.685Z,95203.39
2018-11-23T01:25:15.971Z,95202.83
2018-11-23T01:27:45.383Z,95205.65
2018-11-23T01:30:16.242Z,95210.27
2018-11-23T01:32:44.796Z,95210.29
2018-11-23T01:35:13.620Z,95208.25
2018-11-23T01:37:42.490Z,95201.95
2018-11-23T01:40:14.101Z,95200.63
2018-11-23T01:42:42.594Z,95200.53
2018-11-23T01:45:11.608Z,95201.06
2018-11-23T01:47:40.128Z,95199.92
2018-11-23T01:50:11.423Z,95199.76
2018-11-23T01:52:39.940Z,95196.48
2018-11-23T01:55:09.469Z,95196.55
2018-11-23T01:57:38.580Z,95198.26
2018-11-23T02:00:08.336Z,95194.34
2018-11-23T02:02:36.823Z,95188.77
2018-11-23T02:05:05.544Z,95190.35
2018-11-23T02:07:33.949Z,95189.35
2018-11-23T02:10:02.365Z,95186.92
2018-11-23T02:12:30.767Z,95185.89
2018-11-23T02:14:59.156Z,95189.26
2018-11-23T02:17:27.583Z,95196.59
2018-11-23T02:19:57.192Z,95189.35
2018-11-23T02:22:26.406Z,95192.27
2018-11-23T02:24:54.836Z,95185.27
2018-11-23T02:27:23.648Z,95192.58
2018-11-23T02:29:52.051Z,95183.36
2018-11-23T02:32:20.489Z,95177.84
2018-11-23T02:34:48.929Z,95182.13
2018-11-23T02:37:17.384Z,95179.32
2018-11-23T02:39:45.809Z,95177.77
2018-11-23T02:42:14.271Z,95175.39
2018-11-23T02:44:42.669Z,95177.30
2018-11-23T02:47:11.054Z,95174.05
2018-11-23T02:49:39.491Z,95177.11
2018-11-23T02:52:08.075Z,95189.94
2018-11-23T02:54:36.535Z,95181.46
2018-11-23T02:57:05.568Z,95183.78
2018-11-23T02:59:33.986Z,95179.94
2018-11-23T03:02:02.452Z,95175.34
2018-11-23T03:04:30.845Z,95174.72
2018-11-23T03:06:59.308Z,95177.56
2018-11-23T03:09:27.712Z,95175.21
2018-11-23T03:11:56.178Z,95170.81
2018-11-23T03:14:24.555Z,95174.73
2018-11-23T03:16:52.955Z,95171.56
2018-11-23T03:19:21.396Z,95168.54
2018-11-23T03:21:49.832Z,95171.45
2018-11-23T03:24:18.257Z,95164.55
2018-11-23T03:26:46.721Z,95167.09
2018-11-23T03:29:15.166Z,95161.84
2018-11-23T03:31:43.636Z,95170.64
2018-11-23T03:34:12.086Z,95160.11
2018-11-23T03:36:40.511Z,95161.67
2018-11-23T03:39:09.475Z,95158.61
2018-11-23T03:41:37.887Z,95149.64
2018-11-23T03:44:06.340Z,95156.69
2018-11-23T03:46:34.835Z,95158.95
2018-11-23T03:49:03.400Z,95152.95
2018-11-23T03:51:31.888Z,95152.25
2018-11-23T03:54:01.029Z,95148.14
2018-11-23T03:56:29.531Z,95154.73
2018-11-23T03:58:58.066Z,95151.28
2018-11-23T04:01:26.486Z,95143.98
2018-11-23T04:03:54.945Z,95150.88
2018-11-23T04:06:23.373Z,95137.27
2018-11-23T04:08:52.160Z,95138.66
2018-11-23T04:11:20.747Z,95132.74
2018-11-23T04:13:49.161Z,95137.94
2018-11-23T04:16:17.613Z,95138.33
2018-11-23T04:18:46.055Z,95139.54
2018-11-23T04:21:14.518Z,95134.05
2018-11-23T04:23:42.931Z,95134.52
2018-11-23T04:28:43.703Z,95132.09
2018-11-23T04:31:13.235Z,95136.70
2018-11-23T04:33:41.660Z,95141.03
2018-11-23T04:36:10.177Z,95137.00
2018-11-23T04:38:38.697Z,95139.07
2018-11-23T04:41:07.131Z,95144.06
2018-11-23T04:43:35.597Z,95137.77
2018-11-23T04:46:04.007Z,95137.94
2018-11-23T04:48:32.639Z,95139.72
2018-11-23T04:51:01.161Z,95134.44
2018-11-23T04:53:29.601Z,95141.32
2018-11-23T04:55:57.998Z,95146.13
2018-11-23T04:58:26.499Z,95139.47
2018-11-23T05:00:54.949Z,95146.56
2018-11-23T05:03:23.364Z,95139.86
2018-11-23T05:05:51.747Z,95141.11
2018-11-23T05:08:20.204Z,95148.94
2018-11-23T05:10:48.659Z,95140.89
2018-11-23T05:13:17.140Z,95140.89
2018-11-23T05:15:45.643Z,95139.96
2018-11-23T05:18:14.107Z,95140.63
2018-11-23T05:20:42.560Z,95146.34
2018-11-23T05:23:11.008Z,95144.73
2018-11-23T05:25:39.459Z,95147.29
2018-11-23T05:28:07.835Z,95147.73
2018-11-23T05:30:36.260Z,95143.11
2018-11-23T05:33:10.878Z,95141.78
2018-11-23T05:35:39.269Z,95136.70
2018-11-23T05:38:07.734Z,95130.57
2018-11-23T05:40:36.215Z,95132.98
2018-11-23T05:43:04.939Z,95128.29
2018-11-23T05:45:33.409Z,95124.81
2018-11-23T05:48:01.836Z,95129.00
2018-11-23T05:50:30.308Z,95129.67
2018-11-23T05:52:58.757Z,95130.70
2018-11-23T05:55:27.339Z,95135.94
2018-11-23T05:57:55.785Z,95125.17
2018-11-23T06:00:26.605Z,95122.72
2018-11-23T06:02:55.089Z,95123.58
2018-11-23T06:05:23.551Z,95124.75
2018-11-23T06:07:51.999Z,95127.31
2018-11-23T06:10:21.010Z,95125.05
2018-11-23T06:12:49.443Z,95129.76
2018-11-23T06:15:19.545Z,95131.72
2018-11-23T06:17:48.577Z,95133.31
2018-11-23T06:20:19.093Z,95130.69
2018-11-23T06:22:48.571Z,95130.66
2018-11-23T06:25:22.228Z,95130.84
2018-11-23T06:27:50.728Z,95135.72
2018-11-23T06:33:12.137Z,95137.98
2018-11-23T06:35:40.464Z,95135.84
2018-11-23T06:38:08.808Z,95141.45
2018-11-23T06:40:37.141Z,95134.64
2018-11-23T06:43:05.840Z,95139.69
2018-11-23T06:45:37.750Z,95136.86
2018-11-23T06:48:06.849Z,95136.31
2018-11-23T06:50:35.352Z,95138.31
2018-11-23T06:53:03.704Z,95138.75
2018-11-23T06:55:32.045Z,95140.78
2018-11-23T06:58:00.415Z,95140.84
2018-11-23T07:00:28.741Z,95143.03
2018-11-23T07:02:59.238Z,95142.48
2018-11-23T07:05:25.479Z,95145.45
2018-11-23T07:07:53.855Z,95141.69
2018-11-23T07:10:23.171Z,95145.73
2018-11-23T07:12:51.511Z,95140.84
2018-11-23T07:15:20.371Z,95143.94
2018-11-23T07:17:48.728Z,95144.19
2018-11-23T07:20:17.116Z,95146.12
2018-11-23T07:22:45.475Z,95145.57
2018-11-23T07:25:14.517Z,95147.25
2018-11-23T07:27:43.340Z,95143.56
2018-11-23T07:30:14.665Z,95142.99
2018-11-23T07:32:43.290Z,95144.14
2018-11-23T07:35:11.919Z,95155.71
2018-11-23T07:37:40.393Z,95151.74
2018-11-23T07:40:20.996Z,95152.67
2018-11-23T07:42:49.472Z,95155.70
2018-11-23T07:45:17.912Z,95157.02
2018-11-23T07:47:46.335Z,95150.69
2018-11-23T07:50:14.804Z,95152.77
2018-11-23T07:52:43.237Z,95156.91
2018-11-23T07:55:12.521Z,95152.86
2018-11-23T07:57:41.222Z,95153.33
2018-11-23T08:00:15.527Z,95148.28
2018-11-23T08:02:44.616Z,95150.70
2018-11-23T08:05:14.329Z,95153.81
2018-11-23T08:07:42.770Z,95152.13
2018-11-23T08:10:11.330Z,95158.56
2018-11-23T08:12:40.920Z,95148.33
2018-11-23T08:15:11.353Z,95149.51
2018-11-23T08:17:40.087Z,95152.37
2018-11-23T08:20:09.744Z,95150.64
2018-11-23T08:22:38.212Z,95153.95
2018-11-23T08:25:07.379Z,95147.16
2018-11-23T08:27:35.899Z,95144.97
2018-11-23T08:30:05.318Z,95144.39
2018-11-23T08:32:33.817Z,95150.22
2018-11-23T08:35:02.246Z,95144.59
2018-11-23T08:37:30.748Z,95151.95
2018-11-23T08:39:59.179Z,95146.16
2018-11-23T08:42:27.629Z,95147.86
2018-11-23T08:44:56.271Z,95143.53
2018-11-23T08:47:24.773Z,95142.64
2018-11-23T08:49:53.160Z,95146.93
2018-11-23T08:52:21.719Z,95148.69
2018-11-23T08:54:50.163Z,95146.87
2018-11-23T08:57:18.617Z,95143.48
2018-11-23T08:59:47.179Z,95147.01
2018-11-23T09:02:15.647Z,95150.16
2018-11-23T09:04:44.121Z,95145.07
2018-11-23T09:07:12.541Z,95139.05
2018-11-23T09:09:41.008Z,95138.83
2018-11-23T09:12:09.522Z,95147.11
2018-11-23T09:14:37.938Z,95134.42
2018-11-23T09:17:06.439Z,95140.79
2018-11-23T09:19:34.892Z,95137.39
2018-11-23T09:22:03.351Z,95132.95
2018-11-23T09:24:31.888Z,95138.23
2018-11-23T09:27:00.344Z,95133.61
2018-11-23T09:29:28.809Z,95128.94
2018-11-23T09:31:57.383Z,95121.61
2018-11-23T09:34:25.853Z,95119.73
2018-11-23T09:36:54.315Z,95125.77
2018-11-23T09:39:22.792Z,95127.06
2018-11-23T09:41:51.262Z,95125.15
2018-11-23T09:44:19.784Z,95131.95
2018-11-23T09:46:48.291Z,95138.59
2018-11-23T09:49:16.743Z,95132.57
2018-11-23T09:51:45.154Z,95128.02
2018-11-23T09:54:13.599Z,95130.67
2018-11-23T09:56:42.007Z,95132.19
2018-11-23T09:59:10.438Z,95121.84
2018-11-23T10:01:38.890Z,95124.20
2018-11-23T10:04:07.360Z,95123.67
2018-11-23T10:06:35.775Z,95129.66
2018-11-23T10:09:04.567Z,95125.84
2018-11-23T10:11:33.052Z,95130.14
2018-11-23T10:14:01.473Z,95128.72
2018-11-23T10:16:29.867Z,95127.92
2018-11-23T10:18:58.335Z,95131.81
2018-11-23T10:21:26.856Z,95125.78
2018-11-23T10:24:01.673Z,95125.13
2018-11-23T10:26:30.143Z,95114.98
2018-11-23T10:28:58.636Z,95116.56
2018-11-23T10:31:27.187Z,95115.37
2018-11-23T10:33:55.686Z,95117.22
2018-11-23T10:36:24.107Z,95111.80
2018-11-23T10:38:52.556Z,95112.47
2018-11-23T10:41:20.977Z,95116.20
2018-11-23T10:43:49.430Z,95117.41
2018-11-23T10:46:17.923Z,95119.39
2018-11-23T10:48:46.506Z,95119.39
2018-11-23T10:51:15.011Z,95123.10
2018-11-23T10:53:43.475Z,95112.10
2018-11-23T10:56:11.939Z,95107.23
2018-11-23T10:58:40.433Z,95101.20
2018-11-23T11:01:14.223Z,95100.68
2018-11-23T11:03:47.788Z,95102.45
2018-11-23T11:06:21.403Z,95094.64
2018-11-23T11:08:49.869Z,95094.94
2018-11-23T11:11:18.443Z,95093.15
2018-11-23T11:13:46.845Z,95092.89
2018-11-23T11:16:15.294Z,95081.12
2018-11-23T11:18:43.734Z,95085.00
2018-11-23T11:21:12.119Z,95086.34
2018-11-23T11:23:40.494Z,95081.70
2018-11-23T11:26:08.904Z,95075.42
2018-11-23T11:28:37.346Z,95069.99
2018-11-23T11:31:06.228Z,95068.14
2018-11-23T11:33:34.754Z,95073.33
2018-11-23T11:36:03.203Z,95071.78
2018-11-23T11:38:31.687Z,95069.75
2018-11-23T11:41:00.146Z,95064.02
2018-11-23T11:43:28.541Z,95057.00
2018-11-23T11:45:56.965Z,95055.68
2018-11-23T11:48:25.384Z,95047.59
2018-11-23T11:50:53.742Z,95049.12
2018-11-23T11:53:22.163Z,95053.08
2018-11-23T11:55:50.582Z,95045.89
2018-11-23T11:58:19.083Z,95043.97
2018-11-23T12:00:47.634Z,95036.22
2018-11-23T12:03:16.991Z,95034.84
2018-11-23T12:05:46.282Z,95036.76
2018-11-23T12:08:14.771Z,95036.46
2018-11-23T12:10:43.231Z,95038.01
2018-11-23T12:13:11.690Z,95037.17
2018-11-23T12:15:40.135Z,95029.72
2018-11-23T12:18:08.580Z,95026.80
2018-11-23T12:20:36.996Z,95027.59
2018-11-23T12:23:05.797Z,95029.47
2018-11-23T12:25:34.262Z,95026.93
2018-11-23T12:28:02.713Z,95033.59
2018-11-23T12:30:31.237Z,95033.00
2018-11-23T12:33:00.559Z,95025.59
2018-11-23T12:35:28.986Z,95022.11
2018-11-23T12:40:43.269Z,95014.84
2018-11-23T12:43:11.724Z,95014.65
2018-11-23T12:45:40.139Z,95012.33
2018-11-23T12:48:08.619Z,95010.03
2018-11-23T12:50:37.056Z,95009.82
2018-11-23T12:53:06.529Z,95009.44
2018-11-23T12:55:34.067Z,95000.57
2018-11-23T12:58:02.543Z,95005.71
2018-11-23T13:00:31.125Z,95004.41
2018-11-23T13:03:00.865Z,94997.88
2018-11-23T13:05:30.151Z,94996.14
2018-11-23T13:07:59.909Z,94993.98
2018-11-23T13:10:28.664Z,94995.50
2018-11-23T13:12:57.695Z,94990.17
2018-11-23T13:15:26.262Z,94983.56
2018-11-23T13:17:55.122Z,94993.67
2018-11-23T13:20:23.636Z,94990.66
2018-11-23T13:22:52.104Z,94988.50
2018-11-23T13:25:21.979Z,94980.67
2018-11-23T13:27:50.506Z,94993.60
2018-11-23T13:30:20.986Z,94990.59
2018-11-23T13:32:49.431Z,94992.20
2018-11-23T13:35:18.584Z,94990.91
2018-11-23T13:37:47.017Z,94989.67
2018-11-23T13:40:17.684Z,94990.27
2018-11-23T13:42:46.484Z,94983.45
2018-11-23T13:45:16.336Z,94979.66
2018-11-23T13:47:44.781Z,94988.70
2018-11-23T13:50:14.710Z,94988.13
2018-11-23T13:52:44.252Z,94980.84
2018-11-23T13:55:12.713Z,94982.20
2018-11-23T13:57:41.157Z,94980.20
2018-11-23T14:00:15.120Z,94981.20
2018-11-23T14:02:43.880Z,94971.94
2018-11-23T14:05:14.100Z,94968.06
2018-11-23T14:07:43.320Z,94976.05
2018-11-23T14:10:13.564Z,94965.22
2018-11-23T14:12:42.381Z,94974.06
2018-11-23T14:15:14.341Z,94974.26
2018-11-23T14:17:43.565Z,94968.30
2018-11-23T14:20:13.243Z,94971.08
2018-11-23T14:22:41.675Z,94967.23
2018-11-23T14:25:12.069Z,94967.94
2018-11-23T14:27:40.727Z,94966.70
2018-11-23T14:30:12.348Z,94969.81
2018-11-23T14:32:40.857Z,94969.77
2018-11-23T14:35:11.728Z,94968.18
2018-11-23T14:37:40.485Z,94962.26
2018-11-23T14:40:09.610Z,94958.81
2018-11-23T14:42:38.531Z,94970.09
2018-11-23T14:45:09.883Z,94971.13
2018-11-23T14:47:38.337Z,94974.31
2018-11-23T14:50:09.857Z,94972.27
2018-11-23T14:52:38.388Z,94971.73
2018-11-23T14:55:08.100Z,94963.47
2018-11-23T14:57:36.812Z,94956.28
2018-11-23T15:00:09.865Z,94968.53
2018-11-23T15:02:38.336Z,94965.88
2018-11-23T15:05:07.179Z,94963.44
2018-11-23T15:07:36.488Z,94960.09
2018-11-23T15:10:07.313Z,94962.75
2018-11-23T15:12:35.740Z,94968.77
2018-11-23T15:15:04.312Z,94962.36
2018-11-23T15:17:32.740Z,94962.00
2018-11-23T15:20:01.237Z,94963.97
2018-11-23T15:22:29.680Z,94958.86
2018-11-23T15:24:58.071Z,94961.83
2018-11-23T15:27:26.500Z,94956.91
2018-11-23T15:29:54.984Z,94965.06
2018-11-23T15:32:23.417Z,94963.19
2018-11-23T15:34:51.900Z,94958.81
2018-11-23T15:37:20.357Z,94968.00
2018-11-23T15:39:48.763Z,94966.73
2018-11-23T15:42:17.217Z,94963.27
2018-11-23T15:44:45.657Z,94957.93
2018-11-23T15:47:14.088Z,94956.23
2018-11-23T15:49:42.638Z,94953.09
2018-11-23T15:52:11.077Z,94951.71
2018-11-23T15:54:39.540Z,94953.23
2018-11-23T15:57:08.051Z,94949.53
2018-11-23T15:59:36.726Z,94955.37
2018-11-23T16:02:05.483Z,94946.56
2018-11-23T16:04:39.456Z,94944.64
2018-11-23T16:07:02.420Z,94951.25
2018-11-23T16:09:31.657Z,94939.55
2018-11-23T16:12:00.126Z,94941.92
2018-11-23T16:14:28.575Z,94937.11
2018-11-23T16:16:57.047Z,94930.69
2018-11-23T16:19:25.530Z,94935.26
2018-11-23T16:21:53.980Z,94938.91
2018-11-23T16:24:22.402Z,94936.64
2018-11-23T16:26:50.928Z,94938.11
2018-11-23T16:29:19.348Z,94933.48
2018-11-23T16:31:47.875Z,94934.04
2018-11-23T16:34:16.255Z,94930.67
2018-11-23T16:36:44.704Z,94929.58
2018-11-23T16:39:13.588Z,94926.31
2018-11-23T16:41:42.004Z,94923.73
2018-11-23T16:44:10.428Z,94924.21
2018-11-23T16:46:38.847Z,94930.49
2018-11-23T16:49:07.264Z,94925.27
2018-11-23T16:51:35.623Z,94921.23
2018-11-23T16:54:04.051Z,94921.66
2018-11-23T16:56:32.450Z,94919.76
2018-11-23T16:59:00.848Z,94916.78
2018-11-23T17:01:29.297Z,94921.09
2018-11-23T17:03:59.631Z,94919.97
2018-11-23T17:06:28.068Z,94920.81
2018-11-23T17:08:56.472Z,94919.07
2018-11-23T17:11:24.940Z,94907.61
2018-11-23T17:13:53.964Z,94907.77
2018-11-23T17:16:22.411Z,94908.66
2018-11-23T17:18:50.833Z,94903.64
2018-11-23T17:21:19.268Z,94904.97
2018-11-23T17:23:47.736Z,94907.71
2018-11-23T17:26:16.171Z,94915.38
2018-11-23T17:28:44.588Z,94911.19
2018-11-23T17:31:13.004Z,94915.66
2018-11-23T17:33:41.435Z,94913.37
2018-11-23T17:36:09.901Z,94913.52
2018-11-23T17:38:46.788Z,94912.17
2018-11-23T17:41:06.795Z,94912.98
2018-11-23T17:43:35.253Z,94912.17
2018-11-23T17:46:03.726Z,94913.61
2018-11-23T17:48:32.215Z,94908.40
2018-11-23T17:51:00.651Z,94899.12
2018-11-23T17:53:29.071Z,94896.89
2018-11-23T17:55:57.512Z,94899.12
2018-11-23T17:58:25.970Z,94906.68
2018-11-23T18:00:55.312Z,94898.31
2018-11-23T18:03:23.731Z,94896.34
2018-11-23T18:05:52.140Z,94896.75
2018-11-23T18:08:20.544Z,94899.02
2018-11-23T18:10:49.057Z,94897.73
2018-11-23T18:13:17.527Z,94896.34
2018-11-23T18:15:45.944Z,94890.34
2018-11-23T18:18:14.426Z,94897.52
2018-11-23T18:20:42.858Z,94896.73
2018-11-23T18:23:11.292Z,94898.39
2018-11-23T18:25:40.700Z,94886.57
2018-11-23T18:28:09.127Z,94885.68
2018-11-23T18:30:37.637Z,94889.17
2018-11-23T18:33:07.354Z,94878.25
2018-11-23T18:35:35.814Z,94871.52
2018-11-23T18:38:04.320Z,94871.81
2018-11-23T18:40:37.283Z,94862.81
2018-11-23T18:43:01.191Z,94858.98
2018-11-23T18:45:29.623Z,94856.07
2018-11-23T18:47:58.008Z,94852.44
2018-11-23T18:50:26.427Z,94857.59
2018-11-23T18:52:54.864Z,94854.44
2018-11-23T18:55:23.335Z,94853.12
2018-11-23T18:57:51.781Z,94849.44
2018-11-23T19:00:20.312Z,94839.58
2018-11-23T19:02:48.781Z,94839.01
2018-11-23T19:05:19.346Z,94833.31
2018-11-23T19:07:47.792Z,94823.30
2018-11-23T19:10:16.317Z,94821.06
2018-11-23T19:12:44.822Z,94816.77
2018-11-23T19:15:15.542Z,94816.42
2018-11-23T19:17:44.032Z,94813.13
2018-11-23T19:20:17.341Z,94810.23
2018-11-23T19:22:46.748Z,94804.56
2018-11-23T19:25:15.198Z,94812.28
2018-11-23T19:27:43.627Z,94812.91
2018-11-23T19:30:14.166Z,94814.62
2018-11-23T19:32:42.599Z,94814.98
2018-11-23T19:35:11.045Z,94811.86
2018-11-23T19:37:39.535Z,94807.78
2018-11-23T19:40:13.723Z,94804.62
2018-11-23T19:42:42.295Z,94805.28
2018-11-23T19:45:11.828Z,94795.91
2018-11-23T19:47:40.227Z,94793.61
2018-11-23T19:50:11.129Z,94787.22
2018-11-23T19:52:39.831Z,94781.94
2018-11-23T19:55:08.705Z,94783.53
2018-11-23T19:57:37.126Z,94778.28
2018-11-23T20:00:10.403Z,94780.84
2018-11-23T20:02:38.797Z,94782.17
2018-11-23T20:05:07.183Z,94777.95
2018-11-23T20:07:35.609Z,94783.88
2018-11-23T20:10:04.392Z,94788.59
2018-11-23T20:12:32.805Z,94787.58
2018-11-23T20:15:01.337Z,94789.44
2018-11-23T20:17:29.857Z,94781.94
2018-11-23T20:19:58.272Z,94780.91
2018-11-23T20:22:26.730Z,94785.02
2018-11-23T20:24:55.180Z,94782.97
2018-11-23T20:27:23.584Z,94779.74
2018-11-23T20:29:52.069Z,94780.84
2018-11-23T20:32:20.478Z,94777.23
2018-11-23T20:34:48.917Z,94771.47
2018-11-23T20:37:17.336Z,94767.27
2018-11-23T20:39:45.748Z,94766.91
2018-11-23T20:42:14.176Z,94761.78
2018-11-23T20:44:42.596Z,94765.20
2018-11-23T20:47:11.017Z,94765.17
2018-11-23T20:49:45.725Z,94754.81
2018-11-23T20:52:07.909Z,94752.22
2018-11-23T20:54:36.357Z,94745.80
2018-11-23T20:57:04.814Z,94739.11
2018-11-23T20:59:38.668Z,94739.95
2018-11-23T21:02:01.792Z,94738.48
2018-11-23T21:04:30.199Z,94738.09
2018-11-23T21:06:58.619Z,94734.23
2018-11-23T21:09:31.163Z,94727.61
2018-11-23T21:11:55.527Z,94725.04
2018-11-23T21:14:23.936Z,94720.36
2018-11-23T21:16:52.367Z,94725.34
2018-11-23T21:19:20.881Z,94721.75
2018-11-23T21:21:49.309Z,94716.16
2018-11-23T21:24:17.730Z,94710.93
2018-11-23T21:26:46.156Z,94714.35
2018-11-23T21:29:14.608Z,94711.56
2018-11-23T21:31:43.010Z,94716.20
2018-11-23T21:34:11.530Z,94723.77
2018-11-23T21:36:39.972Z,94716.04
2018-11-23T21:39:13.740Z,94717.05
2018-11-23T21:41:38.643Z,94715.65
2018-11-23T21:44:07.107Z,94712.09
2018-11-23T21:46:35.564Z,94710.87
2018-11-23T21:49:04.011Z,94710.35
2018-11-23T21:51:32.483Z,94707.26
2018-11-23T21:54:00.925Z,94707.41
2018-11-23T21:56:29.332Z,94703.68
2018-11-23T21:58:57.749Z,94695.08
2018-11-23T22:01:26.179Z,94683.07
2018-11-23T22:03:54.646Z,94690.15
2018-11-23T22:06:23.067Z,94688.73
2018-11-23T22:08:51.485Z,94687.84
2018-11-23T22:11:20.622Z,94686.45
2018-11-23T22:13:49.052Z,94680.77
2018-11-23T22:16:17.587Z,94677.95
2018-11-23T22:18:46.037Z,94674.54
2018-11-23T22:21:14.476Z,94669.88
2018-11-23T22:23:42.929Z,94669.42
2018-11-23T22:26:11.394Z,94669.53
2018-11-23T22:28:39.890Z,94671.83
2018-11-23T22:31:08.415Z,94666.66
2018-11-23T22:33:37.827Z,94662.94
2018-11-23T22:36:06.262Z,94664.28
2018-11-23T22:38:34.638Z,94660.38
2018-11-23T22:41:03.070Z,94662.56
2018-11-23T22:43:31.449Z,94660.69
2018-11-23T22:45:59.836Z,94660.58
2018-11-23T22:48:28.240Z,94651.80
2018-11-23T22:50:56.634Z,94645.14
2018-11-23T22:53:25.145Z,94644.53
2018-11-23T22:55:53.488Z,94645.74
2018-11-23T22:58:22.025Z,94644.53
2018-11-23T23:01:02.546Z,94640.34
2018-11-23T23:03:31.289Z,94641.20
2018-11-23T23:06:00.141Z,94636.84
2018-11-23T23:08:28.138Z,94630.43
2018-11-23T23:10:56.459Z,94626.77
2018-11-23T23:13:24.812Z,94618.92
2018-11-23T23:15:53.294Z,94624.67
2018-11-23T23:18:21.723Z,94620.44
2018-11-23T23:20:50.154Z,94615.20
2018-11-23T23:23:18.576Z,94619.31
2018-11-23T23:25:47.020Z,94611.11
2018-11-23T23:28:15.545Z,94612.66
2018-11-23T23:30:43.975Z,94613.47
2018-11-23T23:33:12.479Z,94609.87
2018-11-23T23:35:40.912Z,94610.05
2018-11-23T23:38:09.240Z,94606.72
2018-11-23T23:40:37.616Z,94605.39
2018-11-23T23:43:05.936Z,94607.98
2018-11-23T23:45:34.380Z,94604.99
2018-11-23T23:48:02.707Z,94605.72
2018-11-23T23:50:31.041Z,94595.47
2018-11-23T23:52:59.337Z,94592.02
2018-11-23T23:55:27.635Z,94591.30
2018-11-23T23:57:55.929Z,94587.32
